Cygnus — 9HA2105 — position and weather

sailwx.info

Track history (hours):
 
Tides and Currents Weather Stations Pressure Air Temp Water Temp Dewpoint Dewpoint Depression Visibility Wind Speed Wind Dir Waves Ship Positions

Cygnus

Last reported at 2014-Sep-21 08:33 UTC. Time now 2014-Sep-23 18:24 UTC.
Position N 37°58' W 009°39'.

Length 177 m; draft 9.9 m.

Type: Cargo ship. MMSI: 249963000.

Date/timePositionNaut miles runAvg speedWind from/ knotsBaromVisibWave heightAir tempDewpointWater temp
2014-Sep-21 08:33N 37°58' W 009°39'1413.6
2014-Sep-21 07:33N 37°45' W 009°35'41610.9
2014-Sep-19 17:29N 37°22' W 000°51'1613.2
2014-Sep-19 16:15N 37°33' W 000°36'912.7
2014-Sep-19 15:33N 37°39' W 000°29'2613.1
2014-Sep-19 13:32N 38°02' W 000°11'1313.4
2014-Sep-19 12:32N 38°13' W 000°02'2019.0
2014-Sep-19 11:30N 38°29' E 000°12'  
2014-Sep-15 20:09N 40°55' E 001°46'812.3
2014-Sep-15 19:30N 40°52' E 001°56'2713.2
2014-Sep-15 17:27N 40°42' E 002°29'41212.9
2014-Sep-14 09:33N 37°37' E 010°23'14912.4
2014-Sep-13 21:34N 36°48' E 013°19'1212.3
2014-Sep-13 20:33N 36°45' E 013°34'2611.5
2014-Sep-13 18:18N 36°36' E 014°05'1111.9
2014-Sep-13 17:23N 36°33' E 014°18'47011.7
2014-Sep-12 01:07N 37°29' E 024°02'11112.9
2014-Sep-11 16:33N 39°04' E 025°16'1413.3
2014-Sep-11 15:30N 39°16' E 025°23'1213.2
2014-Sep-11 14:33N 39°27' E 025°31'  
Track history (hours):
 
Tides and Currents Weather Stations Pressure Air Temp Water Temp Dewpoint Dewpoint Depression Visibility Wind Speed Wind Dir Waves Ship Positions

Cygnus

Last reported at 2014-Sep-21 08:33 UTC. Time now 2014-Sep-23 18:24 UTC.
Position N 37°58' W 009°39'.

Length 177 m; draft 9.9 m.

Type: Cargo ship. MMSI: 249963000.

Date/timePositionNaut miles runAvg speedWind from/ knotsBaromVisibWave heightAir tempDewpointWater temp
2014-Sep-21 08:33N 37°58' W 009°39'1413.6
2014-Sep-21 07:33N 37°45' W 009°35'41610.9
2014-Sep-19 17:29N 37°22' W 000°51'1613.2
2014-Sep-19 16:15N 37°33' W 000°36'912.7
2014-Sep-19 15:33N 37°39' W 000°29'2613.1
2014-Sep-19 13:32N 38°02' W 000°11'1313.4
2014-Sep-19 12:32N 38°13' W 000°02'2019.0
2014-Sep-19 11:30N 38°29' E 000°12'  
2014-Sep-15 20:09N 40°55' E 001°46'812.3
2014-Sep-15 19:30N 40°52' E 001°56'2713.2
2014-Sep-15 17:27N 40°42' E 002°29'41212.9
2014-Sep-14 09:33N 37°37' E 010°23'14912.4
2014-Sep-13 21:34N 36°48' E 013°19'1212.3
2014-Sep-13 20:33N 36°45' E 013°34'2611.5
2014-Sep-13 18:18N 36°36' E 014°05'1111.9
2014-Sep-13 17:23N 36°33' E 014°18'47011.7
2014-Sep-12 01:07N 37°29' E 024°02'11112.9
2014-Sep-11 16:33N 39°04' E 025°16'1413.3
2014-Sep-11 15:30N 39°16' E 025°23'1213.2
2014-Sep-11 14:33N 39°27' E 025°31'  

Dump ship's entire track history